Terminal Aerodrome Forecast
Issued by NWS Wakefield, VA

Current Version | Previous Version | Text Only | Print | Product List | Glossary On
Versions: 1 2 3 4 5 6 7 8 9 10 11 12 13 14 15 16 17 18 19 20 21 22 23 24 25 26 27
049
FTUS41 KAKQ 251153
TAFECG
TAF
KECG 251153Z 2512/2612 21011KT P6SM SCT015 BKN150
      TEMPO 2513/2515 BKN015
     FM251500 23014G22KT P6SM BKN060
     FM252100 25011KT P6SM BKN060
     FM260600 35006KT P6SM OVC050
     FM260900 02009KT 6SM -RA BR OVC035=

USA.gov is the U.S. government's official web portal to all federal, state and local government web resources and services.